Deal Island, Maryland
Current Conditions -  °F | °C
As of 3:52 AM on Sunday 26 Oct 2014 (Local Time) from KNHK Reporting Station
Broken Clouds Broken Clouds  
Wind Chill: 56°   Ceiling: 6500
Heat Index: 56°   Visibility: 10mi
Dew Point: 46°   Wind: 10mph
Humidity: 69%   Direction: 260°W
Pressure: 29.68"   Gusts: NA
Location:  38.16°N, 75.95°W
Report Text: KNHK 260752Z AUTO 26009KT 10SM BKN065 13/08 A2968 RMK AO2 SLP050 T01330078 $
Loading
Personal Weather Stations






























Interactive Weather Map
Tropical Storm Tracking
New forecast layout! Learn more

10-Day Weather Forecast

Advertisements
Track Severe Weather on mobile